Stations météo

Publicité
Chatillon/Seine, France (7276): Température de l'air & dewpoint: 21.06.2019 12:00:00 - 27.06.2019 12:00:00 (CEST)Chatillon/Seine, France (7276): Vitesse du vent & gusts: 21.06.2019 12:00:00 - 27.06.2019 12:00:00 (CEST)Chatillon/Seine, France (7276): Direction du vent: 21.06.2019 12:00:00 - 27.06.2019 12:00:00 (CEST)Chatillon/Seine, France (7276): Ensoleillement: 21.06.2019 12:00:00 - 27.06.2019 12:00:00 (CEST)Chatillon/Seine, France (7276): Quantités de précipitations: 21.06.2019 12:00:00 - 27.06.2019 12:00:00 (CEST)
Date & Time tt [°C] td [°C] ff [km/h] ff [knt] fx [km/h] fx [knt] dd sd [min] rr [mm]
27.06.2019 12:00:00 - - - - - - - - -
27.06.2019 11:00:00 33,0 21,5 9 5 21 11 E 60 0,0
27.06.2019 10:00:00 29,8 21,2 9 5 18 10 E 60 0,0
27.06.2019 09:00:00 25,9 20,2 9 5 16 9 ENE 60 0,0
27.06.2019 08:00:00 22,1 19,3 4 2 8 4 NE 60 -
27.06.2019 07:00:00 18,4 17,9 4 2 8 4 E 48 0,0
27.06.2019 06:00:00 17,4 16,8 0 0 8 4 N 0 0,0
27.06.2019 05:00:00 18,0 17,4 8 4 11 6 ESE 0 0,0
27.06.2019 04:00:00 17,3 16,7 4 2 9 5 E 0 0,0
27.06.2019 03:00:00 18,0 16,9 0 0 4 2 N 0 0,0
27.06.2019 02:00:00 18,8 17,1 4 2 5 3 SSE 0 -
27.06.2019 01:00:00 21,3 19,0 0 0 8 4 N 0 0,0
27.06.2019 00:00:00 22,9 19,1 4 2 9 5 S 0 0,0
26.06.2019 23:00:00 22,9 18,9 9 5 13 7 SE 0 0,0
26.06.2019 22:00:00 25,7 18,9 9 5 11 6 SE 6 0,0
26.06.2019 21:00:00 31,9 19,9 8 4 15 8 ESE 60 0,0
26.06.2019 20:00:00 35,1 18,2 11 6 21 11 ESE 60 -
26.06.2019 19:00:00 37,0 17,6 13 7 24 13 SE 60 0,0
26.06.2019 18:00:00 37,5 17,0 13 7 28 15 ESE 60 0,0
26.06.2019 17:00:00 38,1 17,5 15 8 28 15 SE 60 0,0
26.06.2019 16:00:00 38,0 15,8 13 7 28 15 SSE 60 0,0
26.06.2019 15:00:00 37,3 16,8 18 10 34 18 ESE 60 0,0
26.06.2019 14:00:00 37,9 17,3 18 10 37 20 SSE 60 -
26.06.2019 13:00:00 35,9 17,6 18 10 39 21 ESE 60 0,0
26.06.2019 12:00:00 35,4 17,6 18 10 29 16 SE 60 0,0
26.06.2019 11:00:00 34,0 17,7 15 8 26 14 ESE 60 0,0
26.06.2019 10:00:00 32,0 18,6 13 7 22 12 ESE 60 0,0
26.06.2019 09:00:00 27,5 19,0 9 5 18 10 ESE 60 0,0
26.06.2019 08:00:00 22,2 18,0 5 3 11 6 ENE 60 -
26.06.2019 07:00:00 18,3 17,1 5 3 11 6 NE 48 0,0
26.06.2019 06:00:00 16,6 16,1 4 2 9 5 ENE 0 0,0
26.06.2019 05:00:00 16,1 15,5 4 2 8 4 E 0 0,0
26.06.2019 04:00:00 15,9 14,8 4 2 9 5 E 0 0,0
26.06.2019 03:00:00 16,5 15,4 5 3 8 4 E 0 0,0
26.06.2019 02:00:00 18,0 16,5 0 0 4 2 N 0 -
26.06.2019 01:00:00 19,1 16,5 4 2 8 4 S 0 0,0
26.06.2019 00:00:00 19,8 17,0 4 2 8 4 SSE 0 0,0
25.06.2019 23:00:00 21,8 17,2 2 1 4 2 SSE 0 0,0
25.06.2019 22:00:00 26,4 16,0 2 1 5 3 W 6 0,0
25.06.2019 21:00:00 29,5 16,0 4 2 9 5 S 60 0,0
25.06.2019 20:00:00 32,7 13,4 8 4 15 8 S 60 -
25.06.2019 19:00:00 33,5 12,5 5 3 15 8 S 60 0,0
25.06.2019 18:00:00 33,3 11,8 5 3 21 11 SSW 54 0,0
25.06.2019 17:00:00 33,4 11,9 11 6 24 13 SSW 60 0,0
25.06.2019 16:00:00 32,6 11,2 8 4 26 14 SW 54 0,0
25.06.2019 15:00:00 32,9 11,4 15 8 29 16 SSW 60 0,0
25.06.2019 14:00:00 32,2 11,4 16 9 31 17 SSW 60 -
25.06.2019 13:00:00 31,9 13,6 16 9 37 20 SSW 60 0,0
25.06.2019 12:00:00 31,8 14,0 16 9 34 18 S 54 0,0
25.06.2019 11:00:00 30,0 12,9 13 7 29 16 SSW 60 0,0
25.06.2019 10:00:00 29,0 14,4 15 8 24 13 SSW 60 0,0
25.06.2019 09:00:00 26,9 16,2 15 8 24 13 S 54 0,0
25.06.2019 08:00:00 22,8 16,1 11 6 18 10 S 42 -
25.06.2019 07:00:00 21,1 16,1 8 4 18 10 S 48 0,0
25.06.2019 06:00:00 19,2 15,5 11 6 18 10 S 0 0,0
25.06.2019 05:00:00 19,2 15,5 15 8 21 11 SSE 0 0,0
25.06.2019 04:00:00 17,6 14,7 9 5 13 7 SSE 0 0,0
25.06.2019 03:00:00 17,8 15,1 0 0 5 3 N 0 0,0
25.06.2019 02:00:00 19,3 16,0 4 2 8 4 WNW 0 -
25.06.2019 01:00:00 19,5 16,0 0 0 4 2 N 0 0,0
25.06.2019 00:00:00 19,2 16,1 0 0 8 4 N 0 0,0
24.06.2019 23:00:00 19,5 16,0 4 2 11 6 E 0 0,0
24.06.2019 22:00:00 20,9 15,7 8 4 11 6 ESE 6 0,0
24.06.2019 21:00:00 24,7 15,9 8 4 18 10 ESE 18 0,0
24.06.2019 20:00:00 28,6 13,3 15 8 29 16 ESE 42 -
24.06.2019 19:00:00 31,3 14,0 15 8 31 17 ESE 60 0,0
24.06.2019 18:00:00 33,3 14,9 18 10 29 16 ESE 60 0,0
24.06.2019 17:00:00 32,8 13,9 16 9 29 16 ESE 60 0,0
24.06.2019 16:00:00 33,9 14,9 13 7 29 16 ESE 60 0,0
24.06.2019 15:00:00 33,5 13,6 11 6 29 16 SE 60 0,0
24.06.2019 14:00:00 32,4 15,8 11 6 26 14 S 60 -
24.06.2019 13:00:00 31,9 15,8 11 6 26 14 SE 60 0,0
24.06.2019 12:00:00 30,7 16,7 15 8 26 14 S 60 0,0
24.06.2019 11:00:00 28,8 17,3 13 7 21 11 SE 42 0,0
24.06.2019 10:00:00 27,6 17,7 13 7 21 11 ESE 54 0,0
24.06.2019 09:00:00 24,6 19,2 8 4 13 7 ESE 60 0,0
24.06.2019 08:00:00 19,4 18,4 4 2 5 3 NNE 60 -
24.06.2019 07:00:00 15,6 15,3 0 0 4 2 N 48 0,0
24.06.2019 06:00:00 14,1 13,6 0 0 8 4 N 0 0,0
24.06.2019 05:00:00 14,1 13,5 5 3 8 4 ENE 0 0,0
24.06.2019 04:00:00 14,7 13,7 4 2 5 3 E 0 0,0
24.06.2019 03:00:00 16,0 15,0 2 1 5 3 WSW 0 0,0
24.06.2019 02:00:00 16,8 15,8 0 0 8 4 N 0 -
24.06.2019 01:00:00 16,9 15,6 5 3 11 6 SE 0 0,0
24.06.2019 00:00:00 17,4 15,7 8 4 11 6 SE 0 0,0
23.06.2019 23:00:00 18,5 15,9 9 5 15 8 SE 0 0,0
23.06.2019 22:00:00 21,2 16,4 9 5 18 10 SE 12 0,0
23.06.2019 21:00:00 25,0 18,0 8 4 13 7 E 60 0,0
23.06.2019 20:00:00 25,8 17,7 5 3 18 10 E 6 -
23.06.2019 19:00:00 26,5 15,8 11 6 22 12 E 30 0,0
23.06.2019 18:00:00 28,2 16,1 11 6 22 12 ESE 24 0,0
23.06.2019 17:00:00 29,9 16,7 13 7 26 14 SE 48 0,0
23.06.2019 16:00:00 28,8 15,0 13 7 26 14 E 36 0,0
23.06.2019 15:00:00 28,0 15,6 11 6 26 14 E 60 0,0
23.06.2019 14:00:00 28,0 16,3 11 6 24 13 E 60 -
23.06.2019 13:00:00 27,6 14,9 11 6 26 14 E 60 0,0
23.06.2019 12:00:00 26,0 15,7 11 6 26 14 E 60 0,0
23.06.2019 11:00:00 25,8 15,8 13 7 26 14 ESE 60 0,0
23.06.2019 10:00:00 23,2 16,0 11 6 21 11 E 60 0,0
23.06.2019 09:00:00 18,8 16,4 4 2 9 5 NE 60 0,0
23.06.2019 08:00:00 14,1 13,8 4 2 15 8 WSW 60 -
23.06.2019 07:00:00 12,2 11,9 4 2 11 6 SW 48 0,0
23.06.2019 06:00:00 11,0 10,7 4 2 9 5 SW 0 0,0
23.06.2019 05:00:00 11,7 11,4 0 0 9 5 N 0 0,0
23.06.2019 04:00:00 12,0 11,5 5 3 8 4 E 0 0,0
23.06.2019 03:00:00 11,9 11,3 4 2 8 4 ESE 0 0,0
23.06.2019 02:00:00 12,8 12,2 0 0 8 4 N 0 -
23.06.2019 01:00:00 13,3 12,4 0 0 8 4 N 0 0,0
23.06.2019 00:00:00 14,8 13,5 4 2 8 4 SE 0 0,0
22.06.2019 23:00:00 16,5 14,3 0 0 5 3 N 0 0,0
22.06.2019 22:00:00 18,5 14,6 4 2 15 8 ENE 0 0,0
22.06.2019 21:00:00 21,0 14,9 9 5 22 12 NE 60 0,0
22.06.2019 20:00:00 22,1 15,4 8 4 22 12 NE 42 -
22.06.2019 19:00:00 22,6 14,9 8 4 21 11 N 36 0,0
22.06.2019 18:00:00 21,4 14,3 11 6 26 14 NNE 42 0,0
22.06.2019 17:00:00 21,2 14,4 15 8 22 12 N 48 0,0
22.06.2019 16:00:00 19,0 14,9 8 4 13 7 N 0 0,0
22.06.2019 15:00:00 18,0 14,1 4 2 11 6 NW 0 0,0
22.06.2019 14:00:00 17,2 13,7 9 5 18 10 NNE 0 -
22.06.2019 13:00:00 16,3 13,8 8 4 13 7 N 0 0,2
22.06.2019 12:00:00 15,0 13,0 8 4 15 8 N 0 0,0
22.06.2019 11:00:00 13,9 12,5 8 4 15 8 N 0 0,0
22.06.2019 10:00:00 14,0 12,6 9 5 16 9 N 0 0,2
22.06.2019 09:00:00 13,0 12,2 8 4 13 7 N 0 0,2
22.06.2019 08:00:00 12,3 11,5 8 4 15 8 NNW 0 -
22.06.2019 07:00:00 12,4 11,3 4 2 9 5 N 0 2,0
22.06.2019 06:00:00 12,8 11,5 2 1 9 5 WNW 0 1,0
22.06.2019 05:00:00 13,0 11,2 4 2 9 5 W 0 0,8
22.06.2019 04:00:00 13,5 11,4 4 2 13 7 NW 0 0,2
22.06.2019 03:00:00 13,5 11,0 9 5 16 9 N 0 0,6
22.06.2019 02:00:00 15,7 8,9 11 6 18 10 NNE 0 -
22.06.2019 01:00:00 16,3 8,3 11 6 24 13 N 0 0,0
22.06.2019 00:00:00 16,8 8,0 13 7 22 12 N 0 0,0
21.06.2019 23:00:00 17,0 8,4 15 8 26 14 N 0 0,0
21.06.2019 22:00:00 18,1 8,6 13 7 29 16 N 12 0,0
21.06.2019 21:00:00 19,6 8,9 16 9 31 17 N 60 0,0
21.06.2019 20:00:00 20,8 8,8 21 11 34 18 N 42 -
21.06.2019 19:00:00 22,1 9,6 18 10 35 19 N 48 0,0
21.06.2019 18:00:00 23,2 9,6 15 8 31 17 N 36 0,0
21.06.2019 17:00:00 23,0 9,0 13 7 29 16 NNE 42 0,0
21.06.2019 16:00:00 23,1 9,5 16 9 29 16 N 30 0,0
21.06.2019 15:00:00 22,7 8,8 13 7 28 15 N 24 0,0
21.06.2019 14:00:00 22,5 9,3 11 6 29 16 N 36 -
21.06.2019 13:00:00 21,2 9,7 13 7 29 16 N 24 0,0
21.06.2019 12:00:00 22,1 10,6 18 10 28 15 NNE 48 0,0

tt = Température de l'air
td = dewpoint
ff = Vitesse du vent
fx = gusts
dd = Direction du vent
sd = Ensoleillement
rr = Quantités de précipitations

stations d'obs. à proximité